sensor_id;sensor_type;location;lat;lon;timestamp;pressure;altitude;pressure_sealevel;temperature
74485;BMP280;62942;52.462;10.846;2024-01-11T00:00:08;102450;;;
74485;BMP280;62942;52.462;10.846;2024-01-11T00:01:17;102450;;;
74485;BMP280;62942;52.462;10.846;2024-01-11T00:02:17;102450;;;
74485;BMP280;62942;52.462;10.846;2024-01-11T00:03:27;102440.00000000001;;;
74485;BMP280;62942;52.462;10.846;2024-01-11T00:04:27;102440.00000000001;;;
74485;BMP280;62942;52.462;10.846;2024-01-11T00:05:27;102450;;;
74485;BMP280;62942;52.462;10.846;2024-01-11T00:06:39;102440.00000000001;;;
74485;BMP280;62942;52.462;10.846;2024-01-11T00:07:38;102440.00000000001;;;
74485;BMP280;62942;52.462;10.846;2024-01-11T00:08:47;102430;;;
74485;BMP280;62942;52.462;10.846;2024-01-11T00:09:47;102430;;;
74485;BMP280;62942;52.462;10.846;2024-01-11T00:10:57;102440.00000000001;;;
74485;BMP280;62942;52.462;10.846;2024-01-11T00:12:07;102440.00000000001;;;
74485;BMP280;62942;52.462;10.846;2024-01-11T00:13:17;102440.00000000001;;;
74485;BMP280;62942;52.462;10.846;2024-01-11T00:14:27;102450;;;
74485;BMP280;62942;52.462;10.846;2024-01-11T00:15:37;102450;;;
74485;BMP280;62942;52.462;10.846;2024-01-11T00:16:37;102440.00000000001;;;
74485;BMP280;62942;52.462;10.846;2024-01-11T00:17:47;102450;;;
74485;BMP280;62942;52.462;10.846;2024-01-11T00:18:47;102450;;;
74485;BMP280;62942;52.462;10.846;2024-01-11T00:19:57;102440.00000000001;;;
74485;BMP280;62942;52.462;10.846;2024-01-11T00:20:57;102440.00000000001;;;
74485;BMP280;62942;52.462;10.846;2024-01-11T00:21:57;102440.00000000001;;;
74485;BMP280;62942;52.462;10.846;2024-01-11T00:23:07;102440.00000000001;;;
74485;BMP280;62942;52.462;10.846;2024-01-11T00:24:07;102450;;;
74485;BMP280;62942;52.462;10.846;2024-01-11T00:25:17;102440.00000000001;;;
74485;BMP280;62942;52.462;10.846;2024-01-11T00:26:17;102440.00000000001;;;
74485;BMP280;62942;52.462;10.846;2024-01-11T00:27:17;102440.00000000001;;;
74485;BMP280;62942;52.462;10.846;2024-01-11T00:28:27;102440.00000000001;;;
74485;BMP280;62942;52.462;10.846;2024-01-11T00:29:27;102430;;;
74485;BMP280;62942;52.462;10.846;2024-01-11T00:30:37;102440.00000000001;;;
74485;BMP280;62942;52.462;10.846;2024-01-11T00:31:37;102440.00000000001;;;
74485;BMP280;62942;52.462;10.846;2024-01-11T00:32:39;102440.00000000001;;;
74485;BMP280;62942;52.462;10.846;2024-01-11T00:33:39;102430;;;
74485;BMP280;62942;52.462;10.846;2024-01-11T00:34:49;102440.00000000001;;;
74485;BMP280;62942;52.462;10.846;2024-01-11T00:35:49;102440.00000000001;;;
74485;BMP280;62942;52.462;10.846;2024-01-11T00:36:59;102440.00000000001;;;
74485;BMP280;62942;52.462;10.846;2024-01-11T00:38:09;102440.00000000001;;;
74485;BMP280;62942;52.462;10.846;2024-01-11T00:39:09;102430;;;
74485;BMP280;62942;52.462;10.846;2024-01-11T00:40:19;102430;;;
74485;BMP280;62942;52.462;10.846;2024-01-11T00:41:29;102430;;;
74485;BMP280;62942;52.462;10.846;2024-01-11T00:42:29;102430;;;
74485;BMP280;62942;52.462;10.846;2024-01-11T00:43:39;102420;;;
74485;BMP280;62942;52.462;10.846;2024-01-11T00:44:39;102409.99999999999;;;
74485;BMP280;62942;52.462;10.846;2024-01-11T00:45:49;102420;;;
74485;BMP280;62942;52.462;10.846;2024-01-11T00:46:49;102409.99999999999;;;
74485;BMP280;62942;52.462;10.846;2024-01-11T00:47:59;102400;;;
74485;BMP280;62942;52.462;10.846;2024-01-11T00:48:59;102400;;;
74485;BMP280;62942;52.462;10.846;2024-01-11T00:50:09;102400;;;
74485;BMP280;62942;52.462;10.846;2024-01-11T00:51:19;102409.99999999999;;;
74485;BMP280;62942;52.462;10.846;2024-01-11T00:52:19;102409.99999999999;;;
74485;BMP280;62942;52.462;10.846;2024-01-11T00:53:19;102409.99999999999;;;
74485;BMP280;62942;52.462;10.846;2024-01-11T00:54:29;102409.99999999999;;;
74485;BMP280;62942;52.462;10.846;2024-01-11T00:55:39;102400;;;
74485;BMP280;62942;52.462;10.846;2024-01-11T00:56:39;102400;;;
74485;BMP280;62942;52.462;10.846;2024-01-11T00:57:39;102400;;;
74485;BMP280;62942;52.462;10.846;2024-01-11T00:58:49;102400;;;
74485;BMP280;62942;52.462;10.846;2024-01-11T00:59:49;102400;;;
74485;BMP280;62942;52.462;10.846;2024-01-11T01:00:59;102409.99999999999;;;
74485;BMP280;62942;52.462;10.846;2024-01-11T01:01:59;102400;;;
74485;BMP280;62942;52.462;10.846;2024-01-11T01:03:09;102409.99999999999;;;
74485;BMP280;62942;52.462;10.846;2024-01-11T01:04:09;102409.99999999999;;;
74485;BMP280;62942;52.462;10.846;2024-01-11T01:05:19;102409.99999999999;;;
74485;BMP280;62942;52.462;10.846;2024-01-11T01:06:29;102400;;;
74485;BMP280;62942;52.462;10.846;2024-01-11T01:07:40;102409.99999999999;;;
74485;BMP280;62942;52.462;10.846;2024-01-11T01:08:39;102409.99999999999;;;
74485;BMP280;62942;52.462;10.846;2024-01-11T01:09:49;102409.99999999999;;;
74485;BMP280;62942;52.462;10.846;2024-01-11T01:10:49;102409.99999999999;;;
74485;BMP280;62942;52.462;10.846;2024-01-11T01:11:59;102420;;;
74485;BMP280;62942;52.462;10.846;2024-01-11T01:12:59;102420;;;
74485;BMP280;62942;52.462;10.846;2024-01-11T01:14:09;102420;;;
74485;BMP280;62942;52.462;10.846;2024-01-11T01:15:09;102409.99999999999;;;
74485;BMP280;62942;52.462;10.846;2024-01-11T01:16:19;102390;;;
74485;BMP280;62942;52.462;10.846;2024-01-11T01:17:19;102380;;;
74485;BMP280;62942;52.462;10.846;2024-01-11T01:18:19;102380;;;
74485;BMP280;62942;52.462;10.846;2024-01-11T01:19:29;102390;;;
74485;BMP280;62942;52.462;10.846;2024-01-11T01:20:29;102400;;;
74485;BMP280;62942;52.462;10.846;2024-01-11T01:21:39;102400;;;
74485;BMP280;62942;52.462;10.846;2024-01-11T01:22:39;102400;;;
74485;BMP280;62942;52.462;10.846;2024-01-11T01:23:49;102400;;;
74485;BMP280;62942;52.462;10.846;2024-01-11T01:24:49;102400;;;
74485;BMP280;62942;52.462;10.846;2024-01-11T01:25:59;102400;;;
74485;BMP280;62942;52.462;10.846;2024-01-11T01:27:09;102390;;;
74485;BMP280;62942;52.462;10.846;2024-01-11T01:28:09;102390;;;
74485;BMP280;62942;52.462;10.846;2024-01-11T01:29:19;102390;;;
74485;BMP280;62942;52.462;10.846;2024-01-11T01:30:19;102390;;;
74485;BMP280;62942;52.462;10.846;2024-01-11T01:31:19;102390;;;
74485;BMP280;62942;52.462;10.846;2024-01-11T01:32:19;102390;;;
74485;BMP280;62942;52.462;10.846;2024-01-11T01:33:29;102380;;;
74485;BMP280;62942;52.462;10.846;2024-01-11T01:34:29;102370;;;
74485;BMP280;62942;52.462;10.846;2024-01-11T01:35:39;102370;;;
74485;BMP280;62942;52.462;10.846;2024-01-11T01:36:49;102380;;;
74485;BMP280;62942;52.462;10.846;2024-01-11T01:37:59;102370;;;
74485;BMP280;62942;52.462;10.846;2024-01-11T01:38:59;102370;;;
74485;BMP280;62942;52.462;10.846;2024-01-11T01:40:10;102380;;;
74485;BMP280;62942;52.462;10.846;2024-01-11T01:41:09;102370;;;
74485;BMP280;62942;52.462;10.846;2024-01-11T01:42:19;102380;;;
74485;BMP280;62942;52.462;10.846;2024-01-11T01:43:19;102390;;;
74485;BMP280;62942;52.462;10.846;2024-01-11T01:44:29;102390;;;
74485;BMP280;62942;52.462;10.846;2024-01-11T01:45:29;102390;;;
74485;BMP280;62942;52.462;10.846;2024-01-11T01:46:39;102380;;;
74485;BMP280;62942;52.462;10.846;2024-01-11T01:47:40;102380;;;
74485;BMP280;62942;52.462;10.846;2024-01-11T01:48:49;102380;;;
74485;BMP280;62942;52.462;10.846;2024-01-11T01:49:49;102380;;;
74485;BMP280;62942;52.462;10.846;2024-01-11T01:50:59;102370;;;
74485;BMP280;62942;52.462;10.846;2024-01-11T01:52:09;102380;;;
74485;BMP280;62942;52.462;10.846;2024-01-11T01:53:19;102380;;;
74485;BMP280;62942;52.462;10.846;2024-01-11T01:54:19;102380;;;
74485;BMP280;62942;52.462;10.846;2024-01-11T01:55:29;102370;;;
74485;BMP280;62942;52.462;10.846;2024-01-11T01:56:29;102370;;;
74485;BMP280;62942;52.462;10.846;2024-01-11T01:57:29;102370;;;
74485;BMP280;62942;52.462;10.846;2024-01-11T01:58:39;102370;;;
74485;BMP280;62942;52.462;10.846;2024-01-11T01:59:39;102390;;;
74485;BMP280;62942;52.462;10.846;2024-01-11T02:00:49;102380;;;
74485;BMP280;62942;52.462;10.846;2024-01-11T02:01:49;102380;;;
74485;BMP280;62942;52.462;10.846;2024-01-11T02:02:59;102360;;;
74485;BMP280;62942;52.462;10.846;2024-01-11T02:03:59;102370;;;
74485;BMP280;62942;52.462;10.846;2024-01-11T02:04:59;102370;;;
74485;BMP280;62942;52.462;10.846;2024-01-11T02:06:09;102370;;;
74485;BMP280;62942;52.462;10.846;2024-01-11T02:07:09;102370;;;
74485;BMP280;62942;52.462;10.846;2024-01-11T02:08:19;102360;;;
74485;BMP280;62942;52.462;10.846;2024-01-11T02:09:19;102360;;;
74485;BMP280;62942;52.462;10.846;2024-01-11T02:10:29;102350;;;
74485;BMP280;62942;52.462;10.846;2024-01-11T02:11:29;102360;;;
74485;BMP280;62942;52.462;10.846;2024-01-11T02:12:39;102350;;;
74485;BMP280;62942;52.462;10.846;2024-01-11T02:13:49;102350;;;
74485;BMP280;62942;52.462;10.846;2024-01-11T02:14:59;102350;;;
74485;BMP280;62942;52.462;10.846;2024-01-11T02:16:10;102340;;;
74485;BMP280;62942;52.462;10.846;2024-01-11T02:17:19;102340;;;
74485;BMP280;62942;52.462;10.846;2024-01-11T02:18:19;102340;;;
74485;BMP280;62942;52.462;10.846;2024-01-11T02:19:19;102330;;;
74485;BMP280;62942;52.462;10.846;2024-01-11T02:20:29;102350;;;
74485;BMP280;62942;52.462;10.846;2024-01-11T02:21:29;102340;;;
74485;BMP280;62942;52.462;10.846;2024-01-11T02:22:40;102340;;;
74485;BMP280;62942;52.462;10.846;2024-01-11T02:23:43;102340;;;
74485;BMP280;62942;52.462;10.846;2024-01-11T02:24:49;102350;;;
74485;BMP280;62942;52.462;10.846;2024-01-11T02:25:49;102350;;;
74485;BMP280;62942;52.462;10.846;2024-01-11T02:26:57;102350;;;
74485;BMP280;62942;52.462;10.846;2024-01-11T02:27:59;102360;;;
74485;BMP280;62942;52.462;10.846;2024-01-11T02:29:09;102350;;;
74485;BMP280;62942;52.462;10.846;2024-01-11T02:30:19;102340;;;
74485;BMP280;62942;52.462;10.846;2024-01-11T02:31:19;102340;;;
74485;BMP280;62942;52.462;10.846;2024-01-11T02:32:19;102340;;;
74485;BMP280;62942;52.462;10.846;2024-01-11T02:33:29;102340;;;
74485;BMP280;62942;52.462;10.846;2024-01-11T02:34:29;102340;;;
74485;BMP280;62942;52.462;10.846;2024-01-11T02:35:39;102340;;;
74485;BMP280;62942;52.462;10.846;2024-01-11T02:36:39;102340;;;
74485;BMP280;62942;52.462;10.846;2024-01-11T02:37:39;102340;;;
74485;BMP280;62942;52.462;10.846;2024-01-11T02:38:49;102340;;;
74485;BMP280;62942;52.462;10.846;2024-01-11T02:39:59;102340;;;
74485;BMP280;62942;52.462;10.846;2024-01-11T02:40:59;102350;;;
74485;BMP280;62942;52.462;10.846;2024-01-11T02:41:59;102380;;;
74485;BMP280;62942;52.462;10.846;2024-01-11T02:43:06;102380;;;
74485;BMP280;62942;52.462;10.846;2024-01-11T02:43:59;102380;;;
74485;BMP280;62942;52.462;10.846;2024-01-11T02:45:10;102370;;;
74485;BMP280;62942;52.462;10.846;2024-01-11T02:46:09;102370;;;
74485;BMP280;62942;52.462;10.846;2024-01-11T02:47:09;102370;;;
74485;BMP280;62942;52.462;10.846;2024-01-11T02:48:09;102360;;;
74485;BMP280;62942;52.462;10.846;2024-01-11T02:49:19;102370;;;
74485;BMP280;62942;52.462;10.846;2024-01-11T02:50:19;102370;;;
74485;BMP280;62942;52.462;10.846;2024-01-11T02:51:19;102380;;;
74485;BMP280;62942;52.462;10.846;2024-01-11T02:52:29;102370;;;
74485;BMP280;62942;52.462;10.846;2024-01-11T02:53:29;102370;;;
74485;BMP280;62942;52.462;10.846;2024-01-11T02:54:29;102370;;;
74485;BMP280;62942;52.462;10.846;2024-01-11T02:55:39;102380;;;
74485;BMP280;62942;52.462;10.846;2024-01-11T02:56:39;102380;;;
74485;BMP280;62942;52.462;10.846;2024-01-11T02:57:49;102380;;;
74485;BMP280;62942;52.462;10.846;2024-01-11T02:58:49;102380;;;
74485;BMP280;62942;52.462;10.846;2024-01-11T02:59:49;102390;;;
74485;BMP280;62942;52.462;10.846;2024-01-11T03:00:59;102390;;;
74485;BMP280;62942;52.462;10.846;2024-01-11T03:02:09;102390;;;
74485;BMP280;62942;52.462;10.846;2024-01-11T03:03:19;102390;;;
74485;BMP280;62942;52.462;10.846;2024-01-11T03:04:29;102390;;;
74485;BMP280;62942;52.462;10.846;2024-01-11T03:05:29;102390;;;
74485;BMP280;62942;52.462;10.846;2024-01-11T03:06:39;102380;;;
74485;BMP280;62942;52.462;10.846;2024-01-11T03:07:49;102380;;;
74485;BMP280;62942;52.462;10.846;2024-01-11T03:08:59;102380;;;
74485;BMP280;62942;52.462;10.846;2024-01-11T03:10:09;102370;;;
74485;BMP280;62942;52.462;10.846;2024-01-11T03:11:19;102380;;;
74485;BMP280;62942;52.462;10.846;2024-01-11T03:12:19;102380;;;
74485;BMP280;62942;52.462;10.846;2024-01-11T03:13:29;102380;;;
74485;BMP280;62942;52.462;10.846;2024-01-11T03:14:29;102390;;;
74485;BMP280;62942;52.462;10.846;2024-01-11T03:15:39;102390;;;
74485;BMP280;62942;52.462;10.846;2024-01-11T03:16:49;102380;;;
74485;BMP280;62942;52.462;10.846;2024-01-11T03:17:49;102380;;;
74485;BMP280;62942;52.462;10.846;2024-01-11T03:18:59;102380;;;
74485;BMP280;62942;52.462;10.846;2024-01-11T03:19:59;102390;;;
74485;BMP280;62942;52.462;10.846;2024-01-11T03:20:59;102390;;;
74485;BMP280;62942;52.462;10.846;2024-01-11T03:21:59;102400;;;
74485;BMP280;62942;52.462;10.846;2024-01-11T03:23:09;102400;;;
74485;BMP280;62942;52.462;10.846;2024-01-11T03:24:09;102400;;;
74485;BMP280;62942;52.462;10.846;2024-01-11T03:25:19;102409.99999999999;;;
74485;BMP280;62942;52.462;10.846;2024-01-11T03:26:19;102400;;;
74485;BMP280;62942;52.462;10.846;2024-01-11T03:27:29;102390;;;
74485;BMP280;62942;52.462;10.846;2024-01-11T03:28:39;102390;;;
74485;BMP280;62942;52.462;10.846;2024-01-11T03:29:39;102390;;;
74485;BMP280;62942;52.462;10.846;2024-01-11T03:30:49;102380;;;
74485;BMP280;62942;52.462;10.846;2024-01-11T03:31:49;102390;;;
74485;BMP280;62942;52.462;10.846;2024-01-11T03:32:49;102380;;;
74485;BMP280;62942;52.462;10.846;2024-01-11T03:33:49;102370;;;
74485;BMP280;62942;52.462;10.846;2024-01-11T03:34:59;102370;;;
74485;BMP280;62942;52.462;10.846;2024-01-11T03:36:09;102370;;;
74485;BMP280;62942;52.462;10.846;2024-01-11T03:37:09;102360;;;
74485;BMP280;62942;52.462;10.846;2024-01-11T03:38:09;102360;;;
74485;BMP280;62942;52.462;10.846;2024-01-11T03:39:19;102380;;;
74485;BMP280;62942;52.462;10.846;2024-01-11T03:40:29;102380;;;
74485;BMP280;62942;52.462;10.846;2024-01-11T03:41:29;102390;;;
74485;BMP280;62942;52.462;10.846;2024-01-11T03:42:39;102390;;;
74485;BMP280;62942;52.462;10.846;2024-01-11T03:43:39;102400;;;
74485;BMP280;62942;52.462;10.846;2024-01-11T03:44:49;102400;;;
74485;BMP280;62942;52.462;10.846;2024-01-11T03:45:49;102400;;;
74485;BMP280;62942;52.462;10.846;2024-01-11T03:46:59;102390;;;
74485;BMP280;62942;52.462;10.846;2024-01-11T03:47:59;102380;;;
74485;BMP280;62942;52.462;10.846;2024-01-11T03:48:59;102390;;;
74485;BMP280;62942;52.462;10.846;2024-01-11T03:49:59;102400;;;
74485;BMP280;62942;52.462;10.846;2024-01-11T03:51:09;102409.99999999999;;;
74485;BMP280;62942;52.462;10.846;2024-01-11T03:52:09;102400;;;
74485;BMP280;62942;52.462;10.846;2024-01-11T03:53:19;102409.99999999999;;;
74485;BMP280;62942;52.462;10.846;2024-01-11T03:54:19;102400;;;
74485;BMP280;62942;52.462;10.846;2024-01-11T03:55:29;102409.99999999999;;;
74485;BMP280;62942;52.462;10.846;2024-01-11T03:56:39;102409.99999999999;;;
74485;BMP280;62942;52.462;10.846;2024-01-11T03:57:39;102400;;;
74485;BMP280;62942;52.462;10.846;2024-01-11T03:58:49;102400;;;
74485;BMP280;62942;52.462;10.846;2024-01-11T03:59:49;102400;;;
74485;BMP280;62942;52.462;10.846;2024-01-11T04:00:49;102400;;;
74485;BMP280;62942;52.462;10.846;2024-01-11T04:01:59;102400;;;
74485;BMP280;62942;52.462;10.846;2024-01-11T04:02:59;102400;;;
74485;BMP280;62942;52.462;10.846;2024-01-11T04:04:10;102390;;;
74485;BMP280;62942;52.462;10.846;2024-01-11T04:05:09;102390;;;
74485;BMP280;62942;52.462;10.846;2024-01-11T04:06:16;102380;;;
74485;BMP280;62942;52.462;10.846;2024-01-11T04:07:19;102380;;;
74485;BMP280;62942;52.462;10.846;2024-01-11T04:08:19;102380;;;
74485;BMP280;62942;52.462;10.846;2024-01-11T04:09:29;102380;;;
74485;BMP280;62942;52.462;10.846;2024-01-11T04:10:29;102380;;;
74485;BMP280;62942;52.462;10.846;2024-01-11T04:11:39;102380;;;
74485;BMP280;62942;52.462;10.846;2024-01-11T04:12:39;102370;;;
74485;BMP280;62942;52.462;10.846;2024-01-11T04:13:49;102370;;;
74485;BMP280;62942;52.462;10.846;2024-01-11T04:14:59;102370;;;
74485;BMP280;62942;52.462;10.846;2024-01-11T04:16:03;102370;;;
74485;BMP280;62942;52.462;10.846;2024-01-11T04:17:09;102370;;;
74485;BMP280;62942;52.462;10.846;2024-01-11T04:18:09;102380;;;
74485;BMP280;62942;52.462;10.846;2024-01-11T04:19:19;102390;;;
74485;BMP280;62942;52.462;10.846;2024-01-11T04:20:19;102390;;;
74485;BMP280;62942;52.462;10.846;2024-01-11T04:21:29;102380;;;
74485;BMP280;62942;52.462;10.846;2024-01-11T04:22:39;102380;;;
74485;BMP280;62942;52.462;10.846;2024-01-11T04:23:39;102380;;;
74485;BMP280;62942;52.462;10.846;2024-01-11T04:24:49;102390;;;
74485;BMP280;62942;52.462;10.846;2024-01-11T04:25:59;102380;;;
74485;BMP280;62942;52.462;10.846;2024-01-11T04:26:59;102370;;;
74485;BMP280;62942;52.462;10.846;2024-01-11T04:28:09;102370;;;
74485;BMP280;62942;52.462;10.846;2024-01-11T04:29:09;102370;;;
74485;BMP280;62942;52.462;10.846;2024-01-11T04:30:19;102380;;;
74485;BMP280;62942;52.462;10.846;2024-01-11T04:31:19;102380;;;
74485;BMP280;62942;52.462;10.846;2024-01-11T04:32:29;102370;;;
74485;BMP280;62942;52.462;10.846;2024-01-11T04:33:29;102380;;;
74485;BMP280;62942;52.462;10.846;2024-01-11T04:34:39;102380;;;
74485;BMP280;62942;52.462;10.846;2024-01-11T04:35:39;102380;;;
74485;BMP280;62942;52.462;10.846;2024-01-11T04:36:49;102380;;;
74485;BMP280;62942;52.462;10.846;2024-01-11T04:37:49;102380;;;
74485;BMP280;62942;52.462;10.846;2024-01-11T04:38:59;102360;;;
74485;BMP280;62942;52.462;10.846;2024-01-11T04:39:59;102360;;;
74485;BMP280;62942;52.462;10.846;2024-01-11T04:41:09;102360;;;
74485;BMP280;62942;52.462;10.846;2024-01-11T04:42:09;102370;;;
74485;BMP280;62942;52.462;10.846;2024-01-11T04:43:19;102370;;;
74485;BMP280;62942;52.462;10.846;2024-01-11T04:44:19;102380;;;
74485;BMP280;62942;52.462;10.846;2024-01-11T04:45:29;102380;;;
74485;BMP280;62942;52.462;10.846;2024-01-11T04:46:39;102380;;;
74485;BMP280;62942;52.462;10.846;2024-01-11T04:47:39;102390;;;
74485;BMP280;62942;52.462;10.846;2024-01-11T04:48:49;102390;;;
74485;BMP280;62942;52.462;10.846;2024-01-11T04:49:49;102400;;;
74485;BMP280;62942;52.462;10.846;2024-01-11T04:50:59;102409.99999999999;;;
74485;BMP280;62942;52.462;10.846;2024-01-11T04:51:59;102409.99999999999;;;
74485;BMP280;62942;52.462;10.846;2024-01-11T04:53:09;102400;;;
74485;BMP280;62942;52.462;10.846;2024-01-11T04:54:09;102400;;;
74485;BMP280;62942;52.462;10.846;2024-01-11T04:55:09;102400;;;
74485;BMP280;62942;52.462;10.846;2024-01-11T04:56:19;102400;;;
74485;BMP280;62942;52.462;10.846;2024-01-11T04:57:19;102409.99999999999;;;
74485;BMP280;62942;52.462;10.846;2024-01-11T04:58:29;102400;;;
74485;BMP280;62942;52.462;10.846;2024-01-11T04:59:29;102400;;;
74485;BMP280;62942;52.462;10.846;2024-01-11T05:00:39;102390;;;
74485;BMP280;62942;52.462;10.846;2024-01-11T05:01:39;102390;;;
74485;BMP280;62942;52.462;10.846;2024-01-11T05:02:49;102390;;;
74485;BMP280;62942;52.462;10.846;2024-01-11T05:03:49;102400;;;
74485;BMP280;62942;52.462;10.846;2024-01-11T05:04:59;102390;;;
74485;BMP280;62942;52.462;10.846;2024-01-11T05:06:14;102400;;;
74485;BMP280;62942;52.462;10.846;2024-01-11T05:07:19;102400;;;
74485;BMP280;62942;52.462;10.846;2024-01-11T05:08:19;102400;;;
74485;BMP280;62942;52.462;10.846;2024-01-11T05:09:19;102400;;;
74485;BMP280;62942;52.462;10.846;2024-01-11T05:10:29;102390;;;
74485;BMP280;62942;52.462;10.846;2024-01-11T05:11:29;102380;;;
74485;BMP280;62942;52.462;10.846;2024-01-11T05:12:29;102370;;;
74485;BMP280;62942;52.462;10.846;2024-01-11T05:13:29;102370;;;
74485;BMP280;62942;52.462;10.846;2024-01-11T05:14:39;102380;;;
74485;BMP280;62942;52.462;10.846;2024-01-11T05:15:49;102370;;;
74485;BMP280;62942;52.462;10.846;2024-01-11T05:16:49;102360;;;
74485;BMP280;62942;52.462;10.846;2024-01-11T05:17:59;102360;;;
74485;BMP280;62942;52.462;10.846;2024-01-11T05:18:59;102360;;;
74485;BMP280;62942;52.462;10.846;2024-01-11T05:20:09;102350;;;
74485;BMP280;62942;52.462;10.846;2024-01-11T05:21:19;102350;;;
74485;BMP280;62942;52.462;10.846;2024-01-11T05:22:19;102350;;;
74485;BMP280;62942;52.462;10.846;2024-01-11T05:23:29;102340;;;
74485;BMP280;62942;52.462;10.846;2024-01-11T05:24:39;102340;;;
74485;BMP280;62942;52.462;10.846;2024-01-11T05:25:39;102340;;;
74485;BMP280;62942;52.462;10.846;2024-01-11T05:26:49;102330;;;
74485;BMP280;62942;52.462;10.846;2024-01-11T05:27:49;102330;;;
74485;BMP280;62942;52.462;10.846;2024-01-11T05:28:59;102340;;;
74485;BMP280;62942;52.462;10.846;2024-01-11T05:30:09;102340;;;
74485;BMP280;62942;52.462;10.846;2024-01-11T05:31:09;102360;;;
74485;BMP280;62942;52.462;10.846;2024-01-11T05:32:19;102360;;;
74485;BMP280;62942;52.462;10.846;2024-01-11T05:33:19;102360;;;
74485;BMP280;62942;52.462;10.846;2024-01-11T05:34:19;102350;;;
74485;BMP280;62942;52.462;10.846;2024-01-11T05:35:29;102350;;;
74485;BMP280;62942;52.462;10.846;2024-01-11T05:36:29;102350;;;
74485;BMP280;62942;52.462;10.846;2024-01-11T05:37:39;102340;;;
74485;BMP280;62942;52.462;10.846;2024-01-11T05:38:39;102330;;;
74485;BMP280;62942;52.462;10.846;2024-01-11T05:39:39;102320;;;
74485;BMP280;62942;52.462;10.846;2024-01-11T05:40:39;102320;;;
74485;BMP280;62942;52.462;10.846;2024-01-11T05:41:49;102320;;;
74485;BMP280;62942;52.462;10.846;2024-01-11T05:42:49;102330;;;
74485;BMP280;62942;52.462;10.846;2024-01-11T05:43:59;102330;;;
74485;BMP280;62942;52.462;10.846;2024-01-11T05:44:59;102340;;;
74485;BMP280;62942;52.462;10.846;2024-01-11T05:46:09;102340;;;
74485;BMP280;62942;52.462;10.846;2024-01-11T05:47:19;102340;;;
74485;BMP280;62942;52.462;10.846;2024-01-11T05:48:19;102330;;;
74485;BMP280;62942;52.462;10.846;2024-01-11T05:49:29;102340;;;
74485;BMP280;62942;52.462;10.846;2024-01-11T05:50:29;102340;;;
74485;BMP280;62942;52.462;10.846;2024-01-11T05:51:39;102340;;;
74485;BMP280;62942;52.462;10.846;2024-01-11T05:52:39;102340;;;
74485;BMP280;62942;52.462;10.846;2024-01-11T05:53:49;102330;;;
74485;BMP280;62942;52.462;10.846;2024-01-11T05:54:59;102320;;;
74485;BMP280;62942;52.462;10.846;2024-01-11T05:56:09;102310;;;
74485;BMP280;62942;52.462;10.846;2024-01-11T05:57:09;102300;;;
74485;BMP280;62942;52.462;10.846;2024-01-11T05:58:19;102290;;;
74485;BMP280;62942;52.462;10.846;2024-01-11T05:59:19;102280;;;
74485;BMP280;62942;52.462;10.846;2024-01-11T06:00:29;102290;;;
74485;BMP280;62942;52.462;10.846;2024-01-11T06:01:29;102290;;;
74485;BMP280;62942;52.462;10.846;2024-01-11T06:02:39;102320;;;
74485;BMP280;62942;52.462;10.846;2024-01-11T06:03:39;102310;;;
74485;BMP280;62942;52.462;10.846;2024-01-11T06:04:49;102310;;;
74485;BMP280;62942;52.462;10.846;2024-01-11T06:05:49;102330;;;
74485;BMP280;62942;52.462;10.846;2024-01-11T06:06:59;102330;;;
74485;BMP280;62942;52.462;10.846;2024-01-11T06:07:59;102340;;;
74485;BMP280;62942;52.462;10.846;2024-01-11T06:08:59;102340;;;
74485;BMP280;62942;52.462;10.846;2024-01-11T06:10:09;102330;;;
74485;BMP280;62942;52.462;10.846;2024-01-11T06:11:19;102330;;;
74485;BMP280;62942;52.462;10.846;2024-01-11T06:12:19;102340;;;
74485;BMP280;62942;52.462;10.846;2024-01-11T06:13:29;102340;;;
74485;BMP280;62942;52.462;10.846;2024-01-11T06:14:29;102340;;;
74485;BMP280;62942;52.462;10.846;2024-01-11T06:15:39;102330;;;
74485;BMP280;62942;52.462;10.846;2024-01-11T06:16:40;102330;;;
74485;BMP280;62942;52.462;10.846;2024-01-11T06:17:49;102330;;;
74485;BMP280;62942;52.462;10.846;2024-01-11T06:18:59;102330;;;
74485;BMP280;62942;52.462;10.846;2024-01-11T06:20:09;102340;;;
74485;BMP280;62942;52.462;10.846;2024-01-11T06:21:19;102330;;;
74485;BMP280;62942;52.462;10.846;2024-01-11T06:22:19;102340;;;
74485;BMP280;62942;52.462;10.846;2024-01-11T06:23:29;102330;;;
74485;BMP280;62942;52.462;10.846;2024-01-11T06:24:29;102340;;;
74485;BMP280;62942;52.462;10.846;2024-01-11T06:25:39;102340;;;
74485;BMP280;62942;52.462;10.846;2024-01-11T06:26:49;102330;;;
74485;BMP280;62942;52.462;10.846;2024-01-11T06:27:49;102340;;;
74485;BMP280;62942;52.462;10.846;2024-01-11T06:28:59;102340;;;
74485;BMP280;62942;52.462;10.846;2024-01-11T06:29:59;102340;;;
74485;BMP280;62942;52.462;10.846;2024-01-11T06:31:09;102340;;;
74485;BMP280;62942;52.462;10.846;2024-01-11T06:32:09;102340;;;
74485;BMP280;62942;52.462;10.846;2024-01-11T06:33:19;102340;;;
74485;BMP280;62942;52.462;10.846;2024-01-11T06:34:19;102340;;;
74485;BMP280;62942;52.462;10.846;2024-01-11T06:35:29;102350;;;
74485;BMP280;62942;52.462;10.846;2024-01-11T06:36:39;102360;;;
74485;BMP280;62942;52.462;10.846;2024-01-11T06:37:39;102360;;;
74485;BMP280;62942;52.462;10.846;2024-01-11T06:38:49;102360;;;
74485;BMP280;62942;52.462;10.846;2024-01-11T06:39:49;102360;;;
74485;BMP280;62942;52.462;10.846;2024-01-11T06:40:49;102370;;;